Flight Track Log - Related Links

Times and Time Zones

All times are in EST time to prevent confusion due to time zone crossing. See the JBU122 flight status page for this flight to view local times or setup timezone preferences in your user account.

Time Position Orientation Groundspeed Altitude Reporting Facility
EST Latitude Longitude Course Direction KTS MPH feet Rate Location/Type
Thu 09:40:03 PM 26.6911 -80.2258 North 229 264 5,700  Level Miami Center
Thu 09:41:03 PM 26.7517 -80.2300 356° North 264 304 8,500 2,600 Climbing Miami Center
Thu 09:42:00 PM 27.2755 -79.8120 61° Northeast  Level Estimated
Thu 09:42:03 PM 26.7703 -80.1489 76° East 309 356 10,900  Level Miami Center
Thu 09:43:00 PM 27.3939 -79.7549 North  Level Estimated
Thu 09:43:03 PM 26.8100 -80.0431 67° East 338 389 12,200  Level Miami Center
Thu 09:44:00 PM 27.5123 -79.6977 North  Level Estimated
Thu 09:44:03 PM 26.8481 -79.9278 70° East 378 435 14,200  Level Miami Center
Thu 09:45:00 PM 27.6306 -79.6404 North  Level Estimated
Thu 09:45:03 PM 26.8883 -79.8053 70° East 402 463 15,700  Level Miami Center
Thu 09:46:03 PM 26.9278 -79.7039 66° East 405 466 16,100 200 Climbing Miami Center
Thu 09:47:03 PM 26.9925 -79.6006 55° Northeast 400 460 16,100 250 Level Miami Center
Thu 09:48:03 PM 27.0656 -79.4903 53° Northeast 395 455 16,600 1,850 Climbing Miami Center
Thu 09:49:03 PM 27.1342 -79.3822 54° Northeast 411 473 19,800 3,000 Climbing Miami Center
Thu 09:50:03 PM 27.2092 -79.2717 53° Northeast 423 487 22,600 1,650 Climbing Miami Center
Thu 09:51:03 PM 27.2736 -79.1703 54° Northeast 437 503 23,100 1,150 Climbing Miami Center
Thu 09:52:03 PM 27.3833 -79.0881 34° Northeast 427 491 24,900 942 Climbing Miami Center
Thu 09:53:04 PM 27.5114 -79.0578 12° North 435 501 25,000 49 Climbing Miami Center
Thu 09:54:05 PM 27.6392 -79.0322 10° North 463 533 25,000  Level Miami Center
Thu 09:55:04 PM 27.7606 -79.0111 North 471 542 25,000 605 Level Miami Center
Thu 09:56:04 PM 27.8944 -78.9831 10° North 481 554 26,200 1,361 Climbing Miami Center
Thu 09:57:03 PM 28.0264 -78.9547 11° North 481 554 27,700 1,388 Climbing Miami Center
Thu 09:58:05 PM 28.1606 -78.9267 10° North 487 560 29,000 1,279 Climbing Miami Center
Thu 09:59:05 PM 28.2903 -78.9008 10° North 480 552 30,300 1,475 Climbing Miami Center
Thu 10:00:03 PM 28.4222 -78.8725 11° North 481 554 31,900 1,627 Climbing Miami Center
Thu 10:01:03 PM 28.5561 -78.8464 10° North 476 548 33,500 1,550 Climbing Miami Center
Thu 10:02:03 PM 28.6794 -78.8228 10° North 469 540 35,000 1,463 Climbing Miami Center
Thu 10:03:06 PM 28.8072 -78.8058 North 464 534 36,500 1,000 Climbing Miami Center
Thu 10:04:03 PM 28.9283 -78.7844 North 458 527 37,000 256 Climbing Miami Center
Thu 10:05:03 PM 29.0706 -78.7631 North 458 527 37,000  Level Miami Center
Thu 10:06:06 PM 29.1981 -78.7417 North 463 533 37,000 -50 Level Miami Center
Thu 10:07:03 PM 29.3256 -78.7222 North 463 533 36,900  Descending Miami Center
Thu 10:09:17 PM 29.6103 -78.6742 North 447 514 37,000 31 Climbing Jacksonville Center
Thu 10:10:17 PM 29.7389 -78.6544 North 458 527 37,000  Level Jacksonville Center
Thu 10:11:17 PM 29.8636 -78.6344 North 464 534 37,000  Level Jacksonville Center
Thu 10:12:17 PM 29.9942 -78.6119 North 464 534 37,000  Level Jacksonville Center
Thu 10:13:17 PM 30.1189 -78.5922 North 464 534 37,000  Level Jacksonville Center
Thu 10:14:17 PM 30.2450 -78.5600 12° North 464 534 37,000  Level Jacksonville Center
Thu 10:15:17 PM 30.3689 -78.5183 16° North 468 539 37,000  Level Jacksonville Center
Thu 10:16:17 PM 30.4989 -78.4761 16° North 477 549 37,000  Level Jacksonville Center
Thu 10:17:17 PM 30.6247 -78.4294 18° North 466 536 37,000  Level Jacksonville Center
Thu 10:18:17 PM 30.7506 -78.3872 16° North 468 539 37,000  Level Jacksonville Center
Thu 10:19:17 PM 30.8847 -78.3444 15° North 482 555 37,000  Level Jacksonville Center
Thu 10:20:17 PM 31.0083 -78.2997 17° North 470 541 37,000  Level Jacksonville Center
Thu 10:21:17 PM 31.1217 -78.2578 18° North 470 541 37,000  Level Jacksonville Center
Thu 10:22:17 PM 31.2494 -78.2128 17° North 470 541 37,000  Level Jacksonville Center
Thu 10:23:17 PM 31.3750 -78.1675 17° North 470 541 37,000  Level Jacksonville Center
Thu 10:24:17 PM 31.5025 -78.1194 18° North 470 541 37,000  Level Jacksonville Center
Thu 10:25:17 PM 31.6283 -78.0764 16° North 470 541 37,000  Level Jacksonville Center
Thu 10:26:17 PM 31.7561 -78.0356 15° North 470 541 37,000  Level Jacksonville Center
Thu 10:27:17 PM 31.8858 -77.9872 18° North 470 541 37,000  Level Jacksonville Center
Thu 10:28:17 PM 32.0156 -77.9436 16° North 470 541 37,000  Level Jacksonville Center
Thu 10:29:17 PM 32.1433 -77.9000 16° North 470 541 37,000  Level Jacksonville Center
Thu 10:30:17 PM 32.2728 -77.8511 18° North 470 541 37,000  Level Jacksonville Center
Thu 10:31:17 PM 32.4025 -77.8044 17° North 470 541 37,000 -50 Level Jacksonville Center
Thu 10:32:17 PM 32.5300 -77.7581 17° North 470 541 36,900  Descending Jacksonville Center
Thu 10:33:17 PM 32.6594 -77.7111 17° North 470 541 37,000 50 Climbing Jacksonville Center
Thu 10:34:17 PM 32.7872 -77.6667 16° North 470 541 37,000  Level Jacksonville Center
Thu 10:35:17 PM 32.9144 -77.6197 17° North 470 541 37,000  Level Jacksonville Center
Thu 10:36:17 PM 33.0439 -77.5725 17° North 475 547 37,000 -46 Level Jacksonville Center
Thu 10:37:27 PM 33.2053 -77.5150 17° North 486 559 36,900 -46 Descending Washington Center
Thu 10:38:28 PM 33.3311 -77.4681 17° North 480 552 36,900 50 Level Washington Center
Thu 10:39:26 PM 33.4633 -77.4189 17° North 485 558 37,000 50 Climbing Washington Center
Thu 10:40:27 PM 33.5953 -77.3719 17° North 485 558 37,000  Level Washington Center
Thu 10:41:27 PM 33.7253 -77.3247 17° North 485 558 37,000  Level Washington Center
Thu 10:42:26 PM 33.8469 -77.2797 17° North 490 564 37,000  Level Washington Center
Thu 10:43:27 PM 33.9792 -77.2297 17° North 490 564 37,000  Level Washington Center
Thu 10:44:28 PM 34.1133 -77.1797 17° North 496 571 37,000  Level Washington Center
Thu 10:45:29 PM 34.2453 -77.1297 17° North 501 577 37,000  Level Washington Center
Thu 10:46:26 PM 34.3794 -77.0817 16° North 501 577 37,000  Level Washington Center
Thu 10:47:26 PM 34.5178 -77.0314 17° North 501 577 37,000  Level Washington Center
Thu 10:48:26 PM 34.6519 -76.9781 18° North 501 577 37,000  Level Washington Center
Thu 10:49:28 PM 34.7883 -76.9275 17° North 501 577 37,000  Level Washington Center
Thu 10:50:26 PM 34.9222 -76.8764 17° North 501 577 37,000  Level Washington Center
Thu 10:51:27 PM 35.0583 -76.8253 17° North 501 577 37,000  Level Washington Center
Thu 10:52:28 PM 35.1925 -76.7739 17° North 501 577 37,000  Level Washington Center
Thu 10:53:29 PM 35.3267 -76.7197 18° North 501 577 37,000  Level Washington Center
Thu 10:54:27 PM 35.4647 -76.6683 17° North 506 582 37,000  Level Washington Center
Thu 10:55:27 PM 35.5989 -76.6139 18° North 501 577 37,000 -49 Level Washington Center
Thu 10:56:29 PM 35.7328 -76.5644 17° North 501 577 36,900 -50 Descending Washington Center
Thu 10:57:26 PM 35.8667 -76.5097 18° North 501 577 36,900 50 Level Washington Center
Thu 10:58:28 PM 36.0047 -76.4572 17° North 501 577 37,000 50 Climbing Washington Center
Thu 10:59:26 PM 36.1408 -76.4047 17° North 501 577 37,000  Level Washington Center
Thu 11:00:26 PM 36.2767 -76.3519 17° North 501 577 37,000  Level Washington Center
Thu 11:01:27 PM 36.4169 -76.2967 18° North 506 582 37,000  Level Washington Center
Thu 11:02:28 PM 36.5675 -76.2383 17° North 511 588 37,000  Level Washington Center
Thu 11:03:28 PM 36.7053 -76.1853 17° North 511 588 37,000  Level Washington Center
Thu 11:04:29 PM 36.8456 -76.1239 19° North 517 595 37,000  Level Washington Center
Thu 11:05:27 PM 36.9811 -76.0678 18° North 517 595 37,000  Level Washington Center
Thu 11:06:27 PM 37.1294 -76.0139 16° North 531 611 37,000  Level Washington Center
Thu 11:07:26 PM 37.2675 -75.9572 18° North 532 612 37,000  Level Washington Center
Thu 11:08:27 PM 37.4053 -75.8767 25° Northeast 532 612 37,000  Level Washington Center
Thu 11:09:28 PM 37.5328 -75.7542 37° Northeast 545 627 37,000 -50 Level Washington Center
Thu 11:10:26 PM 37.6600 -75.6311 37° Northeast 562 647 36,900 -50 Descending Washington Center
Thu 11:11:28 PM 37.7872 -75.5103 37° Northeast 568 654 36,900  Level Washington Center
Thu 11:12:26 PM 37.9122 -75.3917 37° Northeast 573 659 36,900  Level Washington Center
Thu 11:13:27 PM 38.0392 -75.2647 38° Northeast 578 665 36,900 49 Level Washington Center
Thu 11:14:28 PM 38.1681 -75.1481 35° Northeast 578 665 37,000 50 Climbing Washington Center
Thu 11:15:26 PM 38.2969 -75.0228 37° Northeast 578 665 37,000  Level Washington Center
Thu 11:16:26 PM 38.4067 -74.9028 41° Northeast 578 665 37,000  Level Washington Center
Thu 11:17:26 PM 38.5353 -74.7822 36° Northeast 578 665 37,000  Level Washington Center
Thu 11:18:28 PM 38.6656 -74.6506 38° Northeast 583 671 37,000  Level Washington Center
Thu 11:19:26 PM 38.7897 -74.5236 39° Northeast 577 664 37,000  Level Washington Center
Thu 11:20:26 PM 38.9175 -74.3936 38° Northeast 577 664 37,000  Level Washington Center
Thu 11:21:27 PM 39.0433 -74.2686 38° Northeast 577 664 37,000  Level Washington Center
Thu 11:22:26 PM 39.1733 -74.1406 37° Northeast 577 664 37,000 17 Level Washington Center
Thu 11:27:30 PM 39.7890 -73.5060 37° Northeast 100 115 37,100 17 Climbing FlightAware ADS-B
Thu 11:28:10 PM 39.8590 -73.4110 46° Northeast 579 666 37,100  Level FlightAware ADS-B
Thu 11:28:46 PM 39.9120 -73.3300 50° Northeast 579 666 37,100  Level FlightAware ADS-B
Thu 11:29:23 PM 39.9680 -73.2470 49° Northeast 579 666 37,100 -46 Level FlightAware ADS-B
Thu 11:30:56 PM 40.1690 -72.9920 44° Northeast 579 666 37,000 -51 Descending FlightAware ADS-B
Thu 11:31:20 PM 40.2060 -72.9410 46° Northeast 579 666 37,000  Level FlightAware ADS-B
Thu 11:31:56 PM 40.2630 -72.8630 46° Northeast 579 666 37,000  Level FlightAware ADS-B
Thu 11:32:56 PM 40.3580 -72.7340 46° Northeast 579 666 37,000  Level FlightAware ADS-B
Thu 11:33:56 PM 40.4530 -72.6050 46° Northeast 579 666 37,000  Level FlightAware ADS-B
Thu 11:34:44 PM 40.5290 -72.5020 46° Northeast 579 666 37,000  Level FlightAware ADS-B
Thu 11:35:20 PM 40.5860 -72.4240 46° Northeast 579 666 37,000  Level FlightAware ADS-B
Thu 11:35:57 PM 40.6450 -72.3440 46° Northeast 579 666 37,000  Level FlightAware ADS-B
Thu 11:36:33 PM 40.7010 -72.2670 46° Northeast 579 666 37,000  Level FlightAware ADS-B
Thu 11:37:34 PM 40.7980 -72.1350 46° Northeast 579 666 37,000  Level FlightAware ADS-B
Thu 11:38:10 PM 40.8550 -72.0570 46° Northeast 579 666 37,000  Level FlightAware ADS-B
Thu 11:39:10 PM 40.9500 -71.9270 46° Northeast 579 666 37,000  Level FlightAware ADS-B
Thu 11:39:34 PM 40.9880 -71.8750 46° Northeast 579 666 37,000 -13,310 Level FlightAware ADS-B
Thu 11:40:37 PM 41.4103 -71.6653 46° Northeast 553 636 17,700 -10,600 Descending Boston Center
Thu 11:41:34 PM 41.5133 -71.5411 42° Northeast 495 570 15,800 -2,186 Descending Boston Center
Thu 11:42:35 PM 41.6075 -71.4283 42° Northeast 459 528 13,400 -2,016 Descending Boston Center
Thu 11:43:36 PM 41.6936 -71.3222 43° Northeast 429 494 11,700 -1,190 Descending Boston Center
Thu 11:44:36 PM 41.7800 -71.2206 41° Northeast 418 481 11,000 -600 Descending Boston Center
Thu 11:45:36 PM 41.8694 -71.1267 38° Northeast 411 473 10,500 -900 Descending Boston Center
Thu 11:46:36 PM 41.9467 -71.0403 40° Northeast 329 379 9,200 -1,750 Descending Boston Center
Thu 11:47:36 PM 42.0131 -70.9681 39° Northeast 309 356 7,000 -1,984 Descending Boston Center
Thu 11:48:40 PM 42.0750 -70.9019 38° Northeast 287 330 5,100 -1,918 Descending Boston Center
Thu 11:49:38 PM 42.1333 -70.8606 28° Northeast 239 275 3,100 -1,271 Descending Boston Center
Thu 11:50:38 PM 42.1906 -70.8564 North 208 239 2,600 -650 Descending Boston Center
Thu 11:51:38 PM 42.2328 -70.8833 335° Northwest 170 196 1,800 -550 Descending Boston Center
Thu 11:52:38 PM 42.2722 -70.9050 338° Northwest 157 181 1,500 -198 Descending Boston Center
Thu 11:53:39 PM 42.3075 -70.9292 333° Northwest 145 167 1,400 -397 Descending Boston Center
Thu 11:54:39 PM 42.3342 -70.9619 318° Northwest 129 148 700 -545 Descending Boston Center
Thu 11:55:40 PM 42.3567 -70.9875 320° Northwest 124 143 300 -393 Descending Boston Center
Thu 11:57:00 PM 42.3500 -71.0000 324° Northwest  Level FlightAware Approximate

Login

Don't have an account? Register now (free) for customized features, flight alerts, and more!